KOEO/OEO METAR and TAF weather

Enter ICAO airport designator
Station Type Date Time Source
KOEO METAR 2019/10/23 12:35 UTC NOAA

KOEO 231235Z AUTO 28009KT 10SM OVC018 03/00 A2981 RMK AO2 T00300000


Station Type Date Time Source
KOEO Decoded METAR 2019/10/23 12:35 UTC NOAA

Osceola, L O Simenstad Municipal Airport, WI, United States (KOEO) 45-18-31N 092-41-24W
Oct 23, 2019 - 08:35 AM EDT / 2019.10.23 1235 UTC
Wind: from the W (280 degrees) at 10 MPH (9 KT):0
Visibility: 10 mile(s):0
Sky conditions: overcast
Temperature: 37.4 F (3.0 C)
Dew Point: 32.0 F (0.0 C)
Relative Humidity: 80%
Pressure (altimeter): 29.81 in. Hg (1009 hPa)
ob: KOEO 231235Z AUTO 28009KT 10SM OVC018 03/00 A2981 RMK AO2 T00300000
cycle: 12

Station Type Date Time Source
KOEO TAF UTC NOAA

Error!

Example: see airport list